Terminal Aerodrome Forecast
Issued by NWS

Home | Current Version | Previous Version | Text Only | Print | Product List | Glossary On
Versions: 1 2 3 4 5 6 7 8 9 10 11 12 13
000
FTUS41 KBOX 022322
TAFACK
TAF
KACK 022322Z 0300/0324 26010KT P6SM OVC014
     FM030400 26008KT 4SM -DZ BR OVC005
     FM030800 07006KT 2SM BR VCSH OVC003
     FM031000 10005KT 1 1/2SM -SHRA BR OVC003
     FM031500 06010KT 1SM SHRA BR OVC003
     FM031900 05012KT 2SM BR VCSH OVC003
     FM032200 05011KT 2SM BR OVC003=

USA.gov is the U.S. government's official web portal to all federal, state and local government web resources and services.